createdAt,value
2022-08-18T00:02:28.710Z,5.43
2022-08-18T00:06:52.010Z,5.53
2022-08-18T00:11:15.312Z,5.72
2022-08-18T00:15:41.806Z,6.20
2022-08-18T00:20:19.068Z,5.53
2022-08-18T00:24:48.327Z,5.97
2022-08-18T00:29:11.169Z,5.60
2022-08-18T00:33:33.961Z,6.70
2022-08-18T00:37:59.649Z,6.07
2022-08-18T00:42:30.658Z,5.80
2022-08-18T00:46:53.468Z,5.50
2022-08-18T00:51:32.009Z,5.53
2022-08-18T00:55:57.011Z,5.60
2022-08-18T01:00:19.742Z,6.95
2022-08-18T01:04:50.431Z,5.40
2022-08-18T01:09:13.108Z,6.03
2022-08-18T01:13:38.967Z,5.40
2022-08-18T01:18:30.441Z,5.50
2022-08-18T01:23:05.060Z,5.45
2022-08-18T01:27:32.268Z,5.55
2022-08-18T01:31:57.571Z,5.43
2022-08-18T01:36:22.248Z,5.72
2022-08-18T01:41:25.164Z,5.30
2022-08-18T01:45:27.927Z,5.70
2022-08-18T01:49:50.646Z,5.55
2022-08-18T01:54:15.228Z,6.10
2022-08-18T01:58:37.769Z,6.13
2022-08-18T02:03:02.914Z,5.82
2022-08-18T02:07:30.804Z,5.40
2022-08-18T02:11:58.837Z,5.75
2022-08-18T02:16:21.288Z,5.43
2022-08-18T02:20:44.901Z,5.63
2022-08-18T02:25:08.867Z,5.38
2022-08-18T02:29:31.531Z,5.45
2022-08-18T02:33:53.829Z,5.72
2022-08-18T02:38:17.483Z,5.82
2022-08-18T02:42:40.208Z,5.38
2022-08-18T02:47:03.231Z,5.90
2022-08-18T02:51:25.967Z,5.65
2022-08-18T02:55:49.107Z,5.40
2022-08-18T03:00:16.547Z,5.80
2022-08-18T03:04:41.348Z,5.57
2022-08-18T03:09:06.926Z,6.22
2022-08-18T03:13:30.588Z,5.20
2022-08-18T03:17:53.217Z,6.07
2022-08-18T03:22:27.309Z,5.80
2022-08-18T03:26:53.908Z,5.65
2022-08-18T03:31:18.246Z,5.93
2022-08-18T03:35:41.846Z,5.85
2022-08-18T03:40:05.032Z,5.93
2022-08-18T03:44:33.821Z,6.00
2022-08-18T03:48:58.779Z,5.68
2022-08-18T03:53:21.306Z,6.63
2022-08-18T03:57:45.873Z,5.95
2022-08-18T04:02:08.307Z,6.28
2022-08-18T04:06:43.066Z,7.07
2022-08-18T04:11:05.946Z,6.40
2022-08-18T04:15:28.387Z,7.18
2022-08-18T04:19:53.206Z,5.95
2022-08-18T04:24:15.548Z,6.55
2022-08-18T04:28:37.948Z,6.78
2022-08-18T04:33:02.866Z,5.93
2022-08-18T04:37:25.388Z,6.60
2022-08-18T04:41:48.746Z,6.25
2022-08-18T04:46:11.668Z,6.32
2022-08-18T04:50:36.258Z,5.85
2022-08-18T04:54:58.403Z,6.03
2022-08-18T04:59:20.927Z,5.68
2022-08-18T05:03:50.315Z,6.45
2022-08-18T05:08:13.021Z,7.22
2022-08-18T05:12:35.558Z,6.20
2022-08-18T05:17:04.087Z,5.50
2022-08-18T05:21:26.701Z,5.97
2022-08-18T05:25:50.365Z,6.78
2022-08-18T05:30:15.684Z,5.20
2022-08-18T05:34:38.919Z,5.35
2022-08-18T05:39:36.810Z,6.38
2022-08-18T05:43:59.666Z,6.45
2022-08-18T05:48:22.106Z,6.30
2022-08-18T05:53:12.567Z,6.55
2022-08-18T05:57:45.660Z,6.97
2022-08-18T06:02:42.906Z,6.13
2022-08-18T06:07:12.187Z,6.30
2022-08-18T06:11:34.688Z,6.50
2022-08-18T06:16:34.011Z,5.90
2022-08-18T06:21:17.309Z,6.85
2022-08-18T06:26:07.047Z,5.90
2022-08-18T06:31:14.566Z,6.85
2022-08-18T06:35:51.939Z,6.57
2022-08-18T06:40:14.705Z,6.40
2022-08-18T06:44:45.925Z,5.80
2022-08-18T06:49:22.126Z,6.22
2022-08-18T06:54:21.546Z,5.30
2022-08-18T06:58:43.946Z,5.55
2022-08-18T07:03:18.326Z,4.40
2022-08-18T07:07:42.448Z,4.07
2022-08-18T07:12:11.248Z,4.85
2022-08-18T07:16:57.148Z,4.22
2022-08-18T07:21:31.926Z,4.38
2022-08-18T07:26:20.628Z,4.43
2022-08-18T07:31:00.260Z,4.10
2022-08-18T07:35:42.275Z,4.35
2022-08-18T07:40:42.282Z,3.85
2022-08-18T07:45:18.852Z,3.53
2022-08-18T07:50:16.424Z,4.07
2022-08-18T07:54:55.222Z,4.53
2022-08-18T07:59:29.991Z,4.38
2022-08-18T08:04:11.612Z,4.30
2022-08-18T08:09:08.339Z,4.18
2022-08-18T08:13:56.129Z,4.10
2022-08-18T08:18:38.418Z,4.43
2022-08-18T08:23:34.809Z,4.50
2022-08-18T08:28:40.804Z,4.90
2022-08-18T08:33:22.643Z,4.85
2022-08-18T08:37:57.022Z,4.95
2022-08-18T08:42:45.967Z,5.30
2022-08-18T08:47:52.518Z,5.00
2022-08-18T08:52:31.066Z,5.10
2022-08-18T08:56:59.777Z,5.68
2022-08-18T09:01:34.593Z,5.78
2022-08-18T09:06:18.389Z,4.85
2022-08-18T09:11:14.284Z,5.22
2022-08-18T09:15:58.374Z,6.50
2022-08-18T09:20:58.683Z,4.95
2022-08-18T09:25:54.791Z,5.40
2022-08-18T09:31:11.408Z,5.22
2022-08-18T09:36:02.064Z,4.95
2022-08-18T09:41:02.661Z,4.95
2022-08-18T09:45:33.525Z,4.70
2022-08-18T09:50:26.789Z,5.07
2022-08-18T09:55:01.105Z,6.53
2022-08-18T09:59:38.146Z,5.28
2022-08-18T10:04:15.402Z,5.80
2022-08-18T10:09:27.239Z,6.35
2022-08-18T10:14:20.539Z,5.68
2022-08-18T10:19:05.587Z,5.82
2022-08-18T10:24:29.870Z,6.43
2022-08-18T10:29:02.945Z,6.60
2022-08-18T10:33:55.853Z,6.78
2022-08-18T10:38:54.162Z,6.80
2022-08-18T10:48:04.885Z,6.15
2022-08-18T10:53:17.126Z,7.25
2022-08-18T10:58:27.943Z,7.72
2022-08-18T11:03:42.191Z,8.95
2022-08-18T11:07:52.154Z,9.38
2022-08-18T11:13:16.885Z,10.13
2022-08-18T11:18:10.521Z,10.02
2022-08-18T11:22:36.408Z,10.90
2022-08-18T11:27:17.138Z,10.85
2022-08-18T11:31:39.645Z,10.88
2022-08-18T11:36:02.815Z,10.80
2022-08-18T11:41:09.550Z,11.27
2022-08-18T11:45:27.565Z,11.32
2022-08-18T11:50:13.479Z,11.50
2022-08-18T11:54:50.953Z,10.85
2022-08-18T11:59:52.733Z,12.13
2022-08-18T12:04:14.502Z,10.48
2022-08-18T12:08:58.038Z,11.50
2022-08-18T12:13:25.773Z,12.23
2022-08-18T12:17:52.473Z,12.55
2022-08-18T12:22:22.489Z,12.63
2022-08-18T12:31:29.131Z,13.18
2022-08-18T12:36:09.720Z,11.93
2022-08-18T12:40:35.958Z,12.00
2022-08-18T12:44:58.685Z,10.40
2022-08-18T12:49:25.447Z,11.43
2022-08-18T12:53:58.196Z,11.77
2022-08-18T12:58:22.147Z,11.13
2022-08-18T13:02:45.676Z,11.68
2022-08-18T13:07:08.368Z,12.63
2022-08-18T13:11:30.788Z,12.32
2022-08-18T13:15:58.592Z,13.43
2022-08-18T13:20:23.967Z,12.50
2022-08-18T13:24:47.932Z,12.43
2022-08-18T13:29:10.991Z,13.23
2022-08-18T13:33:56.816Z,11.63
2022-08-18T13:38:25.659Z,12.00
2022-08-18T13:42:50.851Z,12.25
2022-08-18T13:47:13.619Z,11.48
2022-08-18T13:51:36.127Z,11.75
2022-08-18T13:56:00.148Z,11.30
2022-08-18T14:00:29.808Z,11.65
2022-08-18T14:04:56.236Z,12.48
2022-08-18T14:09:19.830Z,11.10
2022-08-18T14:13:50.639Z,12.15
2022-08-18T14:18:16.236Z,10.80
2022-08-18T14:22:57.590Z,11.15
2022-08-18T14:27:27.182Z,11.57
2022-08-18T14:31:57.426Z,11.00
2022-08-18T14:36:30.044Z,11.40
2022-08-18T14:40:53.186Z,12.60
2022-08-18T14:45:26.371Z,13.35
2022-08-18T14:49:58.456Z,11.55
2022-08-18T14:54:20.988Z,13.15
2022-08-18T14:58:43.604Z,11.73
2022-08-18T15:03:07.783Z,12.23
2022-08-18T15:07:32.828Z,11.43
2022-08-18T15:12:00.110Z,11.38
2022-08-18T15:16:31.589Z,14.00
2022-08-18T15:21:19.539Z,13.25
2022-08-18T15:25:58.879Z,12.55
2022-08-18T15:30:22.952Z,12.63
2022-08-18T15:34:46.808Z,14.38
2022-08-18T15:39:13.580Z,14.02
2022-08-18T15:43:45.836Z,12.55
2022-08-18T15:48:08.650Z,14.20
2022-08-18T15:52:35.251Z,12.38
2022-08-18T15:56:58.994Z,12.70
2022-08-18T16:01:32.310Z,12.35
2022-08-18T16:05:56.075Z,12.68
2022-08-18T16:10:22.029Z,14.32
2022-08-18T16:14:45.078Z,12.07
2022-08-18T16:19:08.157Z,12.73
2022-08-18T16:23:45.586Z,12.10
2022-08-18T16:42:25.801Z,11.93
2022-08-18T16:46:48.455Z,11.68
2022-08-18T16:51:17.609Z,10.15
2022-08-18T16:55:39.614Z,11.20
2022-08-18T17:00:24.989Z,19.02
2022-08-18T17:04:47.235Z,15.32
2022-08-18T17:09:10.353Z,12.68
2022-08-18T17:13:34.844Z,11.05
2022-08-18T17:17:57.569Z,10.93
2022-08-18T17:22:20.104Z,10.93
2022-08-18T17:27:11.900Z,10.18
2022-08-18T17:32:10.537Z,10.45
2022-08-18T17:36:53.226Z,10.13
2022-08-18T17:41:19.093Z,9.98
2022-08-18T17:45:42.730Z,10.68
2022-08-18T17:51:04.617Z,10.60
2022-08-18T17:55:39.507Z,11.57
2022-08-18T18:00:17.586Z,11.23
2022-08-18T18:04:44.629Z,11.40
2022-08-18T18:09:13.723Z,12.48
2022-08-18T18:13:35.923Z,12.50
2022-08-18T18:17:58.325Z,11.98
2022-08-18T18:22:26.644Z,13.48
2022-08-18T18:26:49.103Z,12.93
2022-08-18T18:31:28.130Z,11.98
2022-08-18T18:35:58.164Z,12.43
2022-08-18T18:40:23.464Z,14.07
2022-08-18T18:44:56.995Z,14.07
2022-08-18T18:49:37.285Z,15.55
2022-08-18T18:54:24.956Z,15.13
2022-08-18T18:58:56.461Z,17.85
2022-08-18T19:03:39.536Z,19.15
2022-08-18T19:08:24.502Z,18.15
2022-08-18T19:13:02.464Z,18.80
2022-08-18T19:17:47.245Z,18.52
2022-08-18T19:22:23.290Z,19.25
2022-08-18T19:26:56.881Z,20.50
2022-08-18T19:31:45.045Z,20.75
2022-08-18T19:37:07.328Z,20.73
2022-08-18T19:41:50.465Z,20.58
2022-08-18T19:46:18.966Z,22.70
2022-08-18T19:51:18.684Z,22.17
2022-08-18T19:56:05.507Z,22.83
2022-08-18T20:00:57.170Z,21.52
2022-08-18T20:05:46.246Z,23.20
2022-08-18T20:10:49.588Z,22.23
2022-08-18T20:15:23.057Z,21.60
2022-08-18T20:19:55.124Z,21.35
2022-08-18T20:24:44.625Z,20.90
2022-08-18T20:29:36.504Z,20.90
2022-08-18T20:34:14.313Z,23.00
2022-08-18T20:38:45.882Z,23.42
2022-08-18T20:43:33.807Z,23.85
2022-08-18T20:48:39.957Z,23.83
2022-08-18T20:53:34.384Z,25.38
2022-08-18T20:58:08.093Z,24.13
2022-08-18T21:02:43.492Z,24.55
2022-08-18T21:07:15.688Z,24.67
2022-08-18T21:11:48.105Z,23.70
2022-08-18T21:16:38.479Z,23.42
2022-08-18T21:21:02.585Z,22.75
2022-08-18T21:25:25.115Z,23.75
2022-08-18T21:29:49.504Z,25.08
2022-08-18T21:34:35.879Z,23.10
2022-08-18T21:39:08.802Z,24.65
2022-08-18T21:43:50.860Z,22.15
2022-08-18T21:48:13.775Z,22.02
2022-08-18T21:52:40.443Z,21.02
2022-08-18T21:57:27.067Z,22.42
2022-08-18T22:01:56.032Z,21.77
2022-08-18T22:06:36.268Z,22.52
2022-08-18T22:12:00.039Z,22.88
2022-08-18T22:16:36.523Z,23.63
2022-08-18T22:21:01.223Z,23.60
2022-08-18T22:25:40.006Z,24.90
2022-08-18T22:30:06.038Z,24.08
2022-08-18T22:34:32.458Z,23.92
2022-08-18T22:38:56.382Z,23.80
2022-08-18T22:43:18.837Z,22.30
2022-08-18T22:47:44.798Z,22.23
2022-08-18T22:52:42.477Z,22.10
2022-08-18T22:57:06.589Z,23.80
2022-08-18T23:01:30.293Z,23.67
2022-08-18T23:05:54.822Z,22.65
2022-08-18T23:10:17.962Z,23.83
2022-08-18T23:14:41.702Z,23.98
2022-08-18T23:19:04.905Z,25.27
2022-08-18T23:23:29.650Z,26.70
2022-08-18T23:27:54.810Z,24.92
2022-08-18T23:32:18.591Z,28.38
2022-08-18T23:36:45.322Z,26.63
2022-08-18T23:41:13.527Z,26.63
2022-08-18T23:45:42.710Z,26.90
2022-08-18T23:50:08.564Z,26.33
2022-08-18T23:54:35.765Z,26.23
2022-08-18T23:58:59.662Z,28.40
